createdAt,value
2018-08-17T00:01:04.851Z,18.10
2018-08-17T00:03:36.758Z,18.10
2018-08-17T00:06:08.514Z,18.00
2018-08-17T00:08:40.205Z,17.90
2018-08-17T00:11:12.139Z,17.90
2018-08-17T00:13:43.865Z,17.90
2018-08-17T00:16:15.733Z,17.90
2018-08-17T00:18:47.672Z,17.90
2018-08-17T00:21:19.636Z,17.80
2018-08-17T00:23:51.316Z,17.80
2018-08-17T00:26:23.084Z,17.80
2018-08-17T00:28:54.921Z,17.80
2018-08-17T00:31:26.684Z,17.70
2018-08-17T00:33:58.560Z,17.80
2018-08-17T00:36:30.516Z,17.70
2018-08-17T00:39:02.258Z,17.80
2018-08-17T00:41:33.916Z,17.80
2018-08-17T00:44:05.845Z,17.80
2018-08-17T00:46:37.837Z,17.80
2018-08-17T00:49:09.803Z,17.80
2018-08-17T00:51:41.613Z,17.80
2018-08-17T00:54:13.344Z,17.70
2018-08-17T00:56:45.188Z,17.70
2018-08-17T00:59:16.863Z,17.70
2018-08-17T01:01:48.695Z,17.70
2018-08-17T01:04:20.461Z,17.70
2018-08-17T01:06:52.164Z,17.60
2018-08-17T01:09:23.898Z,17.30
2018-08-17T01:11:55.763Z,17.20
2018-08-17T01:14:27.502Z,17.10
2018-08-17T01:16:59.348Z,17.10
2018-08-17T01:19:31.147Z,17.10
2018-08-17T01:22:02.984Z,17.10
2018-08-17T01:24:34.683Z,17.20
2018-08-17T01:27:06.528Z,17.20
2018-08-17T01:29:38.272Z,17.30
2018-08-17T01:32:10.038Z,17.40
2018-08-17T01:34:41.687Z,17.40
2018-08-17T01:37:13.432Z,17.40
2018-08-17T01:39:45.205Z,17.40
2018-08-17T01:42:16.968Z,17.40
2018-08-17T01:44:48.737Z,17.30
2018-08-17T01:47:20.479Z,17.20
2018-08-17T01:49:52.244Z,17.10
2018-08-17T01:52:24.030Z,17.00
2018-08-17T01:54:55.649Z,17.00
2018-08-17T01:57:27.311Z,17.00
2018-08-17T01:59:58.970Z,17.00
2018-08-17T02:02:30.838Z,16.90
2018-08-17T02:05:02.480Z,16.90
2018-08-17T02:07:34.651Z,17.00
2018-08-17T02:10:08.442Z,16.90
2018-08-17T02:12:40.622Z,16.90
2018-08-17T02:15:12.573Z,16.90
2018-08-17T02:17:44.251Z,16.90
2018-08-17T02:20:15.917Z,16.90
2018-08-17T02:22:47.697Z,16.90
2018-08-17T02:25:19.458Z,16.90
2018-08-17T02:27:51.190Z,16.90
2018-08-17T02:30:23.129Z,16.80
2018-08-17T02:32:54.790Z,16.80
2018-08-17T02:35:26.629Z,16.80
2018-08-17T02:37:58.456Z,16.70
2018-08-17T02:40:30.562Z,16.70
2018-08-17T02:43:02.347Z,16.60
2018-08-17T02:45:34.129Z,16.50
2018-08-17T02:48:05.818Z,16.40
2018-08-17T02:50:37.610Z,16.40
2018-08-17T02:53:09.830Z,16.40
2018-08-17T02:55:41.561Z,16.40
2018-08-17T02:58:13.313Z,16.40
2018-08-17T03:00:45.160Z,16.30
2018-08-17T03:03:16.947Z,16.20
2018-08-17T03:05:48.693Z,16.20
2018-08-17T03:08:20.557Z,16.10
2018-08-17T03:10:52.397Z,16.10
2018-08-17T03:13:24.197Z,16.10
2018-08-17T03:15:55.823Z,16.00
2018-08-17T03:18:27.580Z,16.00
2018-08-17T03:20:59.380Z,16.00
2018-08-17T03:23:30.991Z,16.00
2018-08-17T03:26:02.746Z,15.90
2018-08-17T03:28:34.413Z,15.90
2018-08-17T03:31:06.293Z,15.90
2018-08-17T03:33:38.030Z,15.90
2018-08-17T03:36:09.689Z,15.80
2018-08-17T03:38:41.363Z,15.80
2018-08-17T03:41:13.248Z,15.70
2018-08-17T03:43:45.009Z,15.70
2018-08-17T03:46:16.949Z,15.80
2018-08-17T03:48:48.708Z,15.80
2018-08-17T03:51:20.549Z,15.70
2018-08-17T03:53:52.348Z,15.80
2018-08-17T03:56:24.078Z,15.70
2018-08-17T03:58:55.818Z,15.80
2018-08-17T04:01:27.488Z,15.80
2018-08-17T04:03:59.336Z,15.80
2018-08-17T04:06:31.096Z,15.80
2018-08-17T04:09:02.769Z,15.80
2018-08-17T04:11:34.432Z,15.80
2018-08-17T04:14:06.370Z,15.80
2018-08-17T04:16:38.231Z,15.80
2018-08-17T04:19:09.901Z,15.80
2018-08-17T04:21:41.782Z,15.80
2018-08-17T04:24:13.508Z,15.70
2018-08-17T04:26:45.189Z,15.70
2018-08-17T04:29:16.932Z,15.80
2018-08-17T04:31:48.611Z,15.80
2018-08-17T04:34:20.468Z,15.90
2018-08-17T04:36:52.250Z,15.90
2018-08-17T04:39:23.883Z,16.00
2018-08-17T04:41:55.826Z,16.00
2018-08-17T04:44:27.610Z,16.00
2018-08-17T04:46:59.349Z,16.00
2018-08-17T04:49:31.107Z,16.10
2018-08-17T04:52:02.957Z,16.10
2018-08-17T04:54:34.768Z,16.10
2018-08-17T04:57:06.622Z,16.20
2018-08-17T04:59:38.441Z,16.20
2018-08-17T05:02:10.352Z,16.30
2018-08-17T05:04:42.112Z,16.30
2018-08-17T05:07:13.797Z,16.40
2018-08-17T05:09:45.617Z,16.50
2018-08-17T05:12:17.194Z,16.50
2018-08-17T05:14:48.994Z,16.60
2018-08-17T05:17:20.802Z,16.60
2018-08-17T05:19:52.569Z,16.70
2018-08-17T05:22:24.275Z,16.80
2018-08-17T05:24:56.030Z,16.80
2018-08-17T05:27:27.711Z,16.90
2018-08-17T05:29:59.445Z,16.90
2018-08-17T05:32:31.121Z,17.00
2018-08-17T05:35:02.857Z,17.10
2018-08-17T05:37:34.669Z,17.20
2018-08-17T05:40:07.758Z,17.30
2018-08-17T05:42:39.722Z,17.40
2018-08-17T05:45:11.828Z,17.50
2018-08-17T05:47:43.711Z,17.60
2018-08-17T05:50:15.511Z,17.80
2018-08-17T05:52:47.237Z,17.90
2018-08-17T05:55:19.054Z,17.90
2018-08-17T05:57:50.942Z,18.10
2018-08-17T06:00:22.916Z,18.20
2018-08-17T06:02:54.715Z,18.30
2018-08-17T06:05:26.546Z,18.40
2018-08-17T06:07:58.295Z,18.50
2018-08-17T06:10:30.245Z,18.60
2018-08-17T06:13:02.118Z,18.70
2018-08-17T06:15:33.900Z,18.80
2018-08-17T06:18:05.938Z,19.00
2018-08-17T06:20:37.713Z,19.10
2018-08-17T06:23:09.577Z,19.20
2018-08-17T06:25:41.528Z,19.40
2018-08-17T06:28:13.311Z,19.50
2018-08-17T06:30:45.190Z,19.70
2018-08-17T06:33:17.103Z,19.80
2018-08-17T06:35:48.858Z,20.00
2018-08-17T06:38:20.772Z,20.10
2018-08-17T06:40:53.029Z,20.30
2018-08-17T06:43:24.778Z,20.40
2018-08-17T06:45:56.614Z,20.60
2018-08-17T06:48:28.421Z,20.70
2018-08-17T06:51:00.332Z,20.90
2018-08-17T06:53:32.142Z,21.10
2018-08-17T06:56:04.076Z,21.20
2018-08-17T06:58:35.818Z,21.40
2018-08-17T07:01:07.584Z,21.60
2018-08-17T07:03:39.366Z,21.70
2018-08-17T07:06:11.199Z,21.80
2018-08-17T07:08:42.915Z,22.00
2018-08-17T07:11:14.639Z,22.10
2018-08-17T07:13:46.402Z,22.20
2018-08-17T07:16:18.153Z,22.40
2018-08-17T07:18:50.000Z,22.50
2018-08-17T07:21:21.749Z,22.60
2018-08-17T07:23:53.537Z,22.70
2018-08-17T07:26:25.261Z,22.90
2018-08-17T07:28:57.036Z,23.00
2018-08-17T07:31:29.557Z,23.10
2018-08-17T07:34:01.486Z,23.20
2018-08-17T07:36:33.252Z,23.30
2018-08-17T07:39:06.132Z,23.40
2018-08-17T07:41:38.230Z,23.50
2018-08-17T07:44:10.000Z,23.60
2018-08-17T07:46:41.722Z,23.70
2018-08-17T07:49:13.453Z,23.80
2018-08-17T07:51:45.128Z,24.00
2018-08-17T07:54:16.784Z,24.10
2018-08-17T07:56:48.546Z,24.20
2018-08-17T07:59:20.290Z,24.30
2018-08-17T08:01:51.965Z,24.50
2018-08-17T08:04:23.804Z,24.60
2018-08-17T08:06:55.664Z,24.70
2018-08-17T08:09:27.408Z,24.80
2018-08-17T08:11:59.318Z,25.00
2018-08-17T08:14:31.141Z,25.00
2018-08-17T08:17:02.817Z,25.20
2018-08-17T08:19:34.687Z,25.30
2018-08-17T08:22:06.559Z,25.40
2018-08-17T08:24:40.426Z,25.50
2018-08-17T08:27:12.289Z,25.60
2018-08-17T08:29:43.984Z,25.70
2018-08-17T08:32:15.660Z,25.70
2018-08-17T08:34:47.573Z,25.80
2018-08-17T08:37:19.418Z,26.00
2018-08-17T08:39:51.237Z,26.10
2018-08-17T08:42:23.106Z,26.30
2018-08-17T08:44:55.162Z,26.40
2018-08-17T08:47:27.926Z,26.60
2018-08-17T08:49:59.809Z,26.70
2018-08-17T08:52:31.438Z,26.70
2018-08-17T08:55:03.112Z,26.80
2018-08-17T08:57:34.835Z,26.90
2018-08-17T09:00:07.009Z,27.10
2018-08-17T09:02:38.915Z,27.20
2018-08-17T09:05:10.837Z,27.30
2018-08-17T09:07:42.623Z,27.40
2018-08-17T09:10:14.553Z,27.50
2018-08-17T09:12:46.355Z,27.60
2018-08-17T09:15:18.222Z,27.70
2018-08-17T09:17:50.069Z,27.90
2018-08-17T09:20:22.006Z,27.90
2018-08-17T09:22:53.749Z,28.10
2018-08-17T09:25:25.577Z,28.20
2018-08-17T09:27:57.403Z,28.30
2018-08-17T09:30:29.137Z,28.50
2018-08-17T09:33:00.918Z,28.70
2018-08-17T09:35:32.646Z,28.80
2018-08-17T09:38:04.477Z,28.90
2018-08-17T09:40:36.373Z,29.00
2018-08-17T09:43:08.436Z,29.00
2018-08-17T09:45:40.307Z,29.10
2018-08-17T09:48:12.145Z,29.20
2018-08-17T09:50:43.945Z,29.40
2018-08-17T09:53:15.782Z,29.50
2018-08-17T09:55:47.571Z,29.60
2018-08-17T09:58:19.374Z,29.60
2018-08-17T10:00:56.108Z,29.70
2018-08-17T10:03:33.006Z,29.70
2018-08-17T10:06:09.574Z,29.80
2018-08-17T10:08:46.109Z,30.00
2018-08-17T10:11:17.840Z,30.10
2018-08-17T10:13:49.610Z,30.20
2018-08-17T10:16:21.478Z,30.20
2018-08-17T10:18:53.153Z,30.20
2018-08-17T10:21:25.022Z,30.20
2018-08-17T10:23:56.684Z,30.10
2018-08-17T10:26:28.322Z,30.10
2018-08-17T10:29:01.316Z,30.30
2018-08-17T10:31:33.185Z,30.30
2018-08-17T10:34:05.010Z,30.40
2018-08-17T10:36:37.103Z,30.50
2018-08-17T10:39:09.754Z,30.60
2018-08-17T10:41:42.703Z,30.80
2018-08-17T10:44:14.498Z,30.90
2018-08-17T10:46:46.259Z,30.90
2018-08-17T10:49:18.046Z,30.90
2018-08-17T10:51:49.718Z,30.90
2018-08-17T10:54:21.447Z,30.90
2018-08-17T10:56:53.358Z,30.90
2018-08-17T10:59:25.069Z,30.90
2018-08-17T11:01:56.877Z,30.80
2018-08-17T11:04:28.598Z,30.80
2018-08-17T11:07:00.259Z,30.90
2018-08-17T11:09:31.926Z,31.10
2018-08-17T11:12:03.654Z,31.20
2018-08-17T11:14:35.329Z,31.30
2018-08-17T11:17:07.210Z,31.30
2018-08-17T11:19:38.951Z,31.40
2018-08-17T11:22:10.798Z,31.50
2018-08-17T11:24:42.533Z,31.60
2018-08-17T11:27:14.448Z,31.70
2018-08-17T11:29:46.243Z,31.60
2018-08-17T11:32:18.251Z,31.70
2018-08-17T11:34:54.825Z,31.70
2018-08-17T11:37:26.681Z,31.80
2018-08-17T11:40:00.996Z,31.80
2018-08-17T11:42:40.910Z,31.80
2018-08-17T11:45:17.197Z,31.90
2018-08-17T11:47:49.464Z,32.00
2018-08-17T11:50:23.077Z,32.10
2018-08-17T11:52:57.617Z,32.30
2018-08-17T11:55:31.228Z,32.30
2018-08-17T11:58:03.079Z,32.30
2018-08-17T12:00:37.289Z,32.30
2018-08-17T12:03:10.928Z,32.20
2018-08-17T12:05:42.781Z,32.20
2018-08-17T12:08:14.641Z,32.20
2018-08-17T12:10:53.054Z,32.30
2018-08-17T12:13:24.833Z,32.30
2018-08-17T12:15:56.952Z,32.20
2018-08-17T12:18:28.742Z,32.10
2018-08-17T12:21:00.569Z,32.20
2018-08-17T12:23:32.341Z,32.20
2018-08-17T12:26:04.778Z,32.20
2018-08-17T12:28:36.685Z,32.20
2018-08-17T12:31:08.658Z,32.20
2018-08-17T12:33:40.370Z,32.30
2018-08-17T12:36:12.162Z,32.30
2018-08-17T12:38:43.826Z,32.40
2018-08-17T12:41:15.672Z,32.40
2018-08-17T12:43:47.357Z,32.40
2018-08-17T12:46:18.976Z,32.40
2018-08-17T12:48:50.670Z,32.50
2018-08-17T12:51:22.350Z,32.50
2018-08-17T12:53:54.049Z,32.50
2018-08-17T12:56:25.721Z,32.60
2018-08-17T12:58:57.381Z,32.60
2018-08-17T13:01:29.151Z,32.70
2018-08-17T13:04:00.882Z,32.70
2018-08-17T13:06:32.649Z,32.60
2018-08-17T13:09:05.025Z,32.50
2018-08-17T13:11:42.858Z,32.40
2018-08-17T13:14:14.624Z,32.40
2018-08-17T13:16:46.238Z,32.50
2018-08-17T13:19:17.909Z,32.40
2018-08-17T13:21:49.870Z,32.40
2018-08-17T13:24:21.647Z,32.10
2018-08-17T13:26:53.400Z,32.10
2018-08-17T13:29:25.149Z,32.00
2018-08-17T13:31:56.935Z,32.00
2018-08-17T13:34:28.872Z,31.90
2018-08-17T13:37:00.604Z,31.90
2018-08-17T13:39:32.418Z,31.90
2018-08-17T13:42:04.146Z,32.00
2018-08-17T13:44:35.926Z,32.10
2018-08-17T13:47:07.756Z,32.20
2018-08-17T13:49:39.444Z,32.10
2018-08-17T13:52:11.275Z,32.10
2018-08-17T13:54:43.176Z,32.20
2018-08-17T13:57:14.850Z,32.10
2018-08-17T13:59:46.742Z,32.10
2018-08-17T14:02:18.550Z,32.20
2018-08-17T14:04:50.314Z,32.20
2018-08-17T14:07:22.059Z,32.30
2018-08-17T14:09:53.961Z,32.40
2018-08-17T14:12:25.590Z,32.40
2018-08-17T14:14:57.303Z,32.50
2018-08-17T14:17:29.073Z,32.50
2018-08-17T14:20:00.742Z,32.50
2018-08-17T14:22:32.472Z,32.50
2018-08-17T14:25:04.476Z,32.40
2018-08-17T14:27:36.228Z,32.40
2018-08-17T14:30:17.784Z,32.40
2018-08-17T14:32:49.668Z,32.30
2018-08-17T14:35:21.328Z,32.30
2018-08-17T14:37:52.976Z,32.20
2018-08-17T14:40:24.832Z,32.20
2018-08-17T14:42:56.581Z,32.20
2018-08-17T14:45:28.491Z,32.10
2018-08-17T14:48:00.226Z,32.00
2018-08-17T14:50:31.984Z,32.00
2018-08-17T14:53:03.933Z,32.00
2018-08-17T14:55:35.598Z,32.00
2018-08-17T14:58:07.361Z,32.00
2018-08-17T15:00:43.579Z,32.00
2018-08-17T15:03:15.637Z,31.90
2018-08-17T15:05:47.374Z,31.80
2018-08-17T15:08:19.106Z,31.70
2018-08-17T15:10:51.450Z,31.50
2018-08-17T15:13:25.580Z,31.50
2018-08-17T15:15:57.533Z,31.50
2018-08-17T15:18:29.334Z,31.50
2018-08-17T15:21:01.311Z,31.40
2018-08-17T15:23:32.929Z,31.40
2018-08-17T15:26:04.669Z,31.30
2018-08-17T15:28:36.492Z,31.20
2018-08-17T15:31:08.218Z,31.20
2018-08-17T15:33:40.107Z,31.10
2018-08-17T15:36:11.733Z,31.10
2018-08-17T15:38:43.782Z,31.10
2018-08-17T15:41:15.603Z,31.10
2018-08-17T15:43:47.599Z,31.10
2018-08-17T15:46:19.557Z,31.10
2018-08-17T15:48:55.417Z,31.10
2018-08-17T15:51:27.378Z,31.10
2018-08-17T15:53:59.237Z,31.10
2018-08-17T15:56:30.926Z,31.00
2018-08-17T15:59:02.699Z,30.90
2018-08-17T16:01:34.488Z,30.90
2018-08-17T16:04:06.131Z,30.80
2018-08-17T16:06:38.050Z,30.80
2018-08-17T16:09:12.905Z,30.80
2018-08-17T16:11:44.733Z,30.70
2018-08-17T16:14:16.744Z,30.60
2018-08-17T16:16:48.476Z,30.60
2018-08-17T16:19:20.324Z,30.50
2018-08-17T16:21:52.177Z,30.50
2018-08-17T16:24:23.945Z,30.50
2018-08-17T16:26:55.828Z,30.40
2018-08-17T16:29:27.770Z,30.40
2018-08-17T16:31:59.635Z,30.40
2018-08-17T16:34:31.407Z,30.40
2018-08-17T16:37:03.404Z,30.40
2018-08-17T16:39:40.784Z,30.30
2018-08-17T16:42:15.966Z,30.20
2018-08-17T16:44:47.815Z,30.10
2018-08-17T16:47:19.650Z,30.00
2018-08-17T16:49:51.309Z,30.00
2018-08-17T16:52:23.139Z,29.80
2018-08-17T16:54:54.920Z,29.80
2018-08-17T16:57:26.559Z,29.70
2018-08-17T16:59:58.289Z,29.50
2018-08-17T17:02:29.963Z,29.40
2018-08-17T17:05:01.737Z,29.30
2018-08-17T17:07:34.050Z,29.20
2018-08-17T17:10:07.072Z,29.10
2018-08-17T17:12:38.873Z,29.10
2018-08-17T17:15:26.195Z,29.00
2018-08-17T17:18:03.988Z,29.00
2018-08-17T17:20:37.888Z,28.90
2018-08-17T17:23:10.840Z,28.80
2018-08-17T17:25:42.492Z,28.70
2018-08-17T17:28:14.372Z,28.70
2018-08-17T17:30:51.398Z,28.60
2018-08-17T17:33:23.229Z,28.60
2018-08-17T17:35:55.123Z,28.50
2018-08-17T17:38:26.965Z,28.40
2018-08-17T17:40:58.791Z,28.40
2018-08-17T17:43:30.586Z,28.30
2018-08-17T17:46:02.223Z,28.20
2018-08-17T17:48:34.173Z,28.20
2018-08-17T17:51:06.050Z,28.10
2018-08-17T17:53:37.887Z,28.00
2018-08-17T17:56:09.487Z,28.00
2018-08-17T17:58:41.200Z,27.90
2018-08-17T18:01:13.113Z,27.80
2018-08-17T18:03:47.853Z,27.70
2018-08-17T18:06:19.582Z,27.60
2018-08-17T18:08:51.241Z,27.50
2018-08-17T18:11:23.108Z,27.40
2018-08-17T18:13:54.829Z,27.20
2018-08-17T18:16:26.513Z,27.10
2018-08-17T18:18:58.386Z,27.00
2018-08-17T18:21:33.797Z,27.00
2018-08-17T18:24:12.495Z,26.90
2018-08-17T18:26:51.960Z,26.80
2018-08-17T18:29:23.705Z,26.70
2018-08-17T18:31:55.601Z,26.60
2018-08-17T18:34:27.433Z,26.50
2018-08-17T18:36:59.289Z,26.30
2018-08-17T18:39:31.072Z,26.20
2018-08-17T18:42:02.935Z,26.20
2018-08-17T18:44:34.776Z,26.20
2018-08-17T18:47:06.741Z,26.20
2018-08-17T18:49:38.419Z,26.10
2018-08-17T18:52:10.186Z,26.10
2018-08-17T18:54:42.018Z,26.10
2018-08-17T18:57:13.721Z,26.10
2018-08-17T18:59:45.363Z,26.00
2018-08-17T19:02:17.088Z,26.00
2018-08-17T19:04:49.001Z,26.00
2018-08-17T19:07:20.530Z,25.90
2018-08-17T19:09:52.293Z,25.90
2018-08-17T19:12:24.068Z,25.80
2018-08-17T19:14:55.913Z,25.80
2018-08-17T19:17:29.645Z,25.80
2018-08-17T19:20:01.261Z,25.70
2018-08-17T19:22:42.190Z,25.70
2018-08-17T19:25:15.718Z,25.70
2018-08-17T19:27:48.501Z,25.60
2018-08-17T19:30:27.644Z,25.60
2018-08-17T19:33:03.539Z,25.50
2018-08-17T19:35:35.233Z,25.40
2018-08-17T19:38:07.025Z,25.30
2018-08-17T19:40:38.693Z,25.20
2018-08-17T19:43:10.525Z,25.20
2018-08-17T19:45:42.251Z,25.00
2018-08-17T19:48:14.056Z,24.90
2018-08-17T19:50:45.977Z,24.80
2018-08-17T19:53:17.919Z,24.70
2018-08-17T19:55:49.656Z,24.70
2018-08-17T19:58:21.451Z,24.70
2018-08-17T20:00:53.256Z,24.80
2018-08-17T20:03:25.055Z,24.80
2018-08-17T20:05:56.816Z,24.80
2018-08-17T20:08:28.573Z,24.80
2018-08-17T20:11:00.303Z,24.80
2018-08-17T20:13:31.945Z,24.80
2018-08-17T20:16:08.614Z,24.80
2018-08-17T20:18:40.290Z,24.80
2018-08-17T20:21:11.954Z,24.80
2018-08-17T20:23:43.840Z,24.80
2018-08-17T20:26:15.691Z,24.80
2018-08-17T20:28:47.528Z,24.80
2018-08-17T20:31:19.456Z,24.70
2018-08-17T20:33:51.240Z,24.70
2018-08-17T20:36:23.963Z,24.70
2018-08-17T20:38:55.665Z,24.60
2018-08-17T20:41:27.459Z,24.50
2018-08-17T20:43:59.374Z,24.50
2018-08-17T20:46:31.310Z,24.40
2018-08-17T20:49:03.372Z,24.30
2018-08-17T20:51:37.012Z,24.30
2018-08-17T20:54:08.914Z,24.20
2018-08-17T20:56:40.957Z,24.20
2018-08-17T20:59:12.705Z,24.20
2018-08-17T21:01:44.468Z,24.10
2018-08-17T21:04:16.325Z,24.10
2018-08-17T21:06:48.600Z,24.10
2018-08-17T21:09:20.674Z,24.10
2018-08-17T21:11:52.370Z,24.00
2018-08-17T21:14:24.122Z,24.00
2018-08-17T21:16:56.047Z,24.00
2018-08-17T21:19:44.035Z,24.00
2018-08-17T21:22:15.878Z,23.90
2018-08-17T21:24:47.705Z,23.90
2018-08-17T21:27:19.544Z,23.90
2018-08-17T21:29:51.351Z,23.90
2018-08-17T21:32:23.754Z,23.80
2018-08-17T21:34:57.346Z,23.80
2018-08-17T21:37:29.228Z,23.90
2018-08-17T21:40:00.946Z,23.80
2018-08-17T21:42:32.820Z,23.80
2018-08-17T21:45:04.595Z,23.80
2018-08-17T21:47:36.223Z,23.80
2018-08-17T21:50:15.159Z,23.80
2018-08-17T21:52:47.139Z,23.80
2018-08-17T21:55:18.950Z,23.80
2018-08-17T21:57:50.865Z,23.80
2018-08-17T22:00:32.009Z,23.70
2018-08-17T22:03:07.593Z,23.80
2018-08-17T22:05:41.281Z,23.70
2018-08-17T22:08:13.056Z,23.80
2018-08-17T22:10:44.685Z,23.70
2018-08-17T22:13:28.777Z,23.70
2018-08-17T22:16:00.859Z,23.70
2018-08-17T22:18:32.803Z,23.70
2018-08-17T22:21:04.513Z,23.60
2018-08-17T22:23:36.371Z,23.60
2018-08-17T22:26:08.233Z,23.60
2018-08-17T22:28:40.030Z,23.50
2018-08-17T22:31:11.765Z,23.50
2018-08-17T22:33:43.904Z,23.50
2018-08-17T22:36:19.709Z,23.50
2018-08-17T22:38:51.630Z,23.50
2018-08-17T22:41:23.432Z,23.40
2018-08-17T22:43:55.191Z,23.40
2018-08-17T22:46:26.824Z,23.30
2018-08-17T22:48:58.788Z,23.30
2018-08-17T22:51:30.339Z,23.30
2018-08-17T22:54:02.102Z,23.30
2018-08-17T22:56:34.146Z,23.20
2018-08-17T22:59:05.809Z,23.20
2018-08-17T23:01:37.680Z,23.20
2018-08-17T23:04:09.517Z,23.10
2018-08-17T23:06:41.397Z,23.10
2018-08-17T23:09:13.062Z,23.10
2018-08-17T23:11:44.712Z,23.00
2018-08-17T23:14:17.295Z,22.90
2018-08-17T23:16:49.169Z,22.90
2018-08-17T23:19:20.829Z,22.80
2018-08-17T23:21:52.551Z,22.80
2018-08-17T23:24:24.221Z,22.80
2018-08-17T23:26:55.971Z,22.70
2018-08-17T23:29:27.628Z,22.70
2018-08-17T23:31:59.410Z,22.70
2018-08-17T23:34:31.174Z,22.70
2018-08-17T23:37:02.803Z,22.60
2018-08-17T23:39:34.577Z,22.60
2018-08-17T23:42:06.533Z,22.60
2018-08-17T23:44:38.478Z,22.50
2018-08-17T23:47:10.281Z,22.50
2018-08-17T23:49:41.913Z,22.40
2018-08-17T23:52:13.756Z,22.40
2018-08-17T23:54:45.621Z,22.40
2018-08-17T23:57:17.444Z,22.40
2018-08-17T23:59:49.376Z,22.50
